Rosebud, SD (57570)

9:24 PM CDT on June 27, 2017 (GMT -0500)
Miller Field | | Change Station
Active Advisory: Severe Thunderstorm Watch

Elev 2589 ft 42.86 °N, 100.55 °W | Updated 32 minutes ago

Mostly Cloudy
Mostly Cloudy
79 °F
Feels Like 79 °F
N
6
Wind Variable Wind from West

Today
High -- | Low -- °F
--% Chance of Precip.
Yesterday
High -- | Low -- °F
Precip. -- in
Pressure 29.61 in
Visibility 10.0 miles
Clouds Clear
Dew Point 60 °F
Humidity 52%
Rainfall 0.00 in
Snow Depth Not available.
6:05 AM 9:27 PM
Waxing Crescent, 21% visible
METAR KVTN 280152Z AUTO 28005KT 10SM CLR 26/16 A2967 RMK AO2 SLP025 T02610156
Pressure 29.61 in
Visibility 10.0 miles
Clouds Clear
Dew Point 60 °F
Humidity 52%
Rainfall 0.00 in
Snow Depth Not available.
6:05 AM 9:27 PM
Waxing Crescent, 21% visible
METAR KVTN 280152Z AUTO 28005KT 10SM CLR 26/16 A2967 RMK AO2 SLP025 T02610156

Get Your Daily Forecast Email!

Thanks for signing up!

Be on the lookout for a verification email in your inbox.

You'll start receiving severe weather alerts in your inbox..

×

10-Day Weather Forecast

Almanac

Astronomy

Jun. 27, 2017 Rise Set
Actual Time
Civil Twilight
Nautical Twilight
Astronomical Twilight
Moon
Length of Visible Light
Length of Day
Tomorrow will be .
, % of the Moon is Illuminated

Today's Extremes

State Highs State Lows

Community

WunderPhotos

Category 6

Welcome to Category 6. This is the collective home for Weather Underground's featured writeups by Dr. Jeff Masters (right), Bob Henson (left), Chris Burt, and other regular contributors.

Nearby

Air Quality

  Air Quality AQ Index Pollutant
Not available.

Snow Depth

Station Depth Elevation

Earthquake Activity

City Distance Mag. Time & Date
Minimum magnitude displayed is 2.5.

Coastal Water Temperatures

Place Temperature

Stations

Nearby Weather Stations

Station Location Temp. Windchill Dew Point Humidity Wind Precip. Elev Updated Type
                   

Watches & Warnings

Severe Thunderstorm Watch
Issued: 9:03 PM CDT Jun. 27, 2017 – National Weather Service

Severe Thunderstorm Watch 372 remains in effect until 1100 PM CDT

SD
. South Dakota counties included are

Bennett Haakon Jackson
Mellette Todd Tripp